sensor_id;sensor_type;location;lat;lon;timestamp;P1;durP1;ratioP1;P2;durP2;ratioP2
70169;SDS011;57543;45.442;9.212;2023-10-08T00:00:14;40.97;;;21.85;;
70169;SDS011;57543;45.442;9.212;2023-10-08T00:03:37;33.97;;;19.85;;
70169;SDS011;57543;45.442;9.212;2023-10-08T00:06:44;38.53;;;20.60;;
70169;SDS011;57543;45.442;9.212;2023-10-08T00:09:50;33.80;;;18.80;;
70169;SDS011;57543;45.442;9.212;2023-10-08T00:12:57;37.08;;;19.25;;
70169;SDS011;57543;45.442;9.212;2023-10-08T00:16:01;28.45;;;17.45;;
70169;SDS011;57543;45.442;9.212;2023-10-08T00:19:08;37.83;;;21.85;;
70169;SDS011;57543;45.442;9.212;2023-10-08T00:22:12;36.63;;;21.67;;
70169;SDS011;57543;45.442;9.212;2023-10-08T00:25:16;38.50;;;22.67;;
70169;SDS011;57543;45.442;9.212;2023-10-08T00:28:21;42.83;;;23.42;;
70169;SDS011;57543;45.442;9.212;2023-10-08T00:31:25;43.08;;;24.27;;
70169;SDS011;57543;45.442;9.212;2023-10-08T00:34:41;38.40;;;21.25;;
70169;SDS011;57543;45.442;9.212;2023-10-08T00:37:46;35.33;;;21.57;;
70169;SDS011;57543;45.442;9.212;2023-10-08T00:40:51;42.38;;;22.50;;
70169;SDS011;57543;45.442;9.212;2023-10-08T00:43:59;40.40;;;23.77;;
70169;SDS011;57543;45.442;9.212;2023-10-08T00:47:04;45.05;;;23.73;;
70169;SDS011;57543;45.442;9.212;2023-10-08T00:50:10;37.58;;;22.30;;
70169;SDS011;57543;45.442;9.212;2023-10-08T00:53:23;38.63;;;21.43;;
70169;SDS011;57543;45.442;9.212;2023-10-08T00:56:28;43.25;;;24.20;;
70169;SDS011;57543;45.442;9.212;2023-10-08T00:59:49;44.55;;;24.63;;
70169;SDS011;57543;45.442;9.212;2023-10-08T01:02:56;45.58;;;24.77;;
70169;SDS011;57543;45.442;9.212;2023-10-08T01:06:04;41.65;;;23.38;;
70169;SDS011;57543;45.442;9.212;2023-10-08T01:09:12;46.30;;;25.40;;
70169;SDS011;57543;45.442;9.212;2023-10-08T01:12:24;49.08;;;27.27;;
70169;SDS011;57543;45.442;9.212;2023-10-08T01:15:36;48.70;;;26.02;;
70169;SDS011;57543;45.442;9.212;2023-10-08T01:18:40;47.03;;;25.90;;
70169;SDS011;57543;45.442;9.212;2023-10-08T01:21:53;45.95;;;23.77;;
70169;SDS011;57543;45.442;9.212;2023-10-08T01:24:57;44.23;;;24.47;;
70169;SDS011;57543;45.442;9.212;2023-10-08T01:28:04;43.60;;;24.00;;
70169;SDS011;57543;45.442;9.212;2023-10-08T01:31:18;51.63;;;27.88;;
70169;SDS011;57543;45.442;9.212;2023-10-08T01:34:21;48.45;;;24.95;;
70169;SDS011;57543;45.442;9.212;2023-10-08T01:37:38;49.60;;;26.83;;
70169;SDS011;57543;45.442;9.212;2023-10-08T01:40:43;47.17;;;25.70;;
70169;SDS011;57543;45.442;9.212;2023-10-08T01:43:53;47.28;;;24.35;;
70169;SDS011;57543;45.442;9.212;2023-10-08T01:46:57;43.40;;;24.15;;
70169;SDS011;57543;45.442;9.212;2023-10-08T01:50:02;45.85;;;24.58;;
70169;SDS011;57543;45.442;9.212;2023-10-08T01:53:13;49.83;;;25.55;;
70169;SDS011;57543;45.442;9.212;2023-10-08T01:56:19;44.80;;;24.57;;
70169;SDS011;57543;45.442;9.212;2023-10-08T01:59:23;46.05;;;25.17;;
70169;SDS011;57543;45.442;9.212;2023-10-08T02:02:27;48.47;;;25.50;;
70169;SDS011;57543;45.442;9.212;2023-10-08T02:05:30;49.33;;;27.00;;
70169;SDS011;57543;45.442;9.212;2023-10-08T02:08:35;48.13;;;26.38;;
70169;SDS011;57543;45.442;9.212;2023-10-08T02:14:47;43.08;;;23.88;;
70169;SDS011;57543;45.442;9.212;2023-10-08T02:17:52;46.92;;;24.73;;
70169;SDS011;57543;45.442;9.212;2023-10-08T02:20:58;42.40;;;23.33;;
70169;SDS011;57543;45.442;9.212;2023-10-08T02:24:04;52.28;;;28.63;;
70169;SDS011;57543;45.442;9.212;2023-10-08T02:27:08;44.93;;;23.60;;
70169;SDS011;57543;45.442;9.212;2023-10-08T02:30:11;46.50;;;24.40;;
70169;SDS011;57543;45.442;9.212;2023-10-08T02:33:16;46.03;;;25.02;;
70169;SDS011;57543;45.442;9.212;2023-10-08T02:36:19;50.83;;;26.80;;
70169;SDS011;57543;45.442;9.212;2023-10-08T02:39:23;45.63;;;26.13;;
70169;SDS011;57543;45.442;9.212;2023-10-08T02:42:30;50.90;;;26.80;;
70169;SDS011;57543;45.442;9.212;2023-10-08T02:45:34;51.08;;;27.80;;
70169;SDS011;57543;45.442;9.212;2023-10-08T02:48:41;48.75;;;25.45;;
70169;SDS011;57543;45.442;9.212;2023-10-08T02:51:45;47.63;;;25.52;;
70169;SDS011;57543;45.442;9.212;2023-10-08T02:54:49;48.22;;;25.05;;
70169;SDS011;57543;45.442;9.212;2023-10-08T02:57:56;49.90;;;27.03;;
70169;SDS011;57543;45.442;9.212;2023-10-08T03:00:59;48.65;;;26.13;;
70169;SDS011;57543;45.442;9.212;2023-10-08T03:04:03;53.58;;;25.98;;
70169;SDS011;57543;45.442;9.212;2023-10-08T03:07:07;51.00;;;25.60;;
70169;SDS011;57543;45.442;9.212;2023-10-08T03:10:15;50.60;;;27.02;;
70169;SDS011;57543;45.442;9.212;2023-10-08T03:13:22;46.23;;;25.00;;
70169;SDS011;57543;45.442;9.212;2023-10-08T03:16:26;47.60;;;26.25;;
70169;SDS011;57543;45.442;9.212;2023-10-08T03:19:37;52.80;;;26.48;;
70169;SDS011;57543;45.442;9.212;2023-10-08T03:22:41;50.10;;;24.90;;
70169;SDS011;57543;45.442;9.212;2023-10-08T03:25:52;50.42;;;24.98;;
70169;SDS011;57543;45.442;9.212;2023-10-08T03:29:04;45.17;;;25.13;;
70169;SDS011;57543;45.442;9.212;2023-10-08T03:32:13;51.55;;;24.50;;
70169;SDS011;57543;45.442;9.212;2023-10-08T03:35:21;48.63;;;26.27;;
70169;SDS011;57543;45.442;9.212;2023-10-08T03:38:31;51.90;;;26.88;;
70169;SDS011;57543;45.442;9.212;2023-10-08T03:41:47;49.28;;;26.77;;
70169;SDS011;57543;45.442;9.212;2023-10-08T03:45:11;48.00;;;26.50;;
70169;SDS011;57543;45.442;9.212;2023-10-08T03:48:15;47.47;;;25.88;;
70169;SDS011;57543;45.442;9.212;2023-10-08T03:51:21;51.30;;;28.15;;
70169;SDS011;57543;45.442;9.212;2023-10-08T03:54:26;49.63;;;26.38;;
70169;SDS011;57543;45.442;9.212;2023-10-08T03:57:39;47.58;;;25.92;;
70169;SDS011;57543;45.442;9.212;2023-10-08T04:00:45;52.53;;;27.70;;
70169;SDS011;57543;45.442;9.212;2023-10-08T04:03:49;56.08;;;27.10;;
70169;SDS011;57543;45.442;9.212;2023-10-08T04:07:01;49.35;;;27.48;;
70169;SDS011;57543;45.442;9.212;2023-10-08T04:10:28;46.25;;;24.73;;
70169;SDS011;57543;45.442;9.212;2023-10-08T04:14:02;50.05;;;26.55;;
70169;SDS011;57543;45.442;9.212;2023-10-08T04:17:06;45.13;;;24.90;;
70169;SDS011;57543;45.442;9.212;2023-10-08T04:20:12;47.83;;;26.23;;
70169;SDS011;57543;45.442;9.212;2023-10-08T04:23:35;52.50;;;25.80;;
70169;SDS011;57543;45.442;9.212;2023-10-08T04:26:42;46.03;;;26.42;;
70169;SDS011;57543;45.442;9.212;2023-10-08T04:29:46;47.03;;;26.33;;
70169;SDS011;57543;45.442;9.212;2023-10-08T04:32:53;48.03;;;24.90;;
70169;SDS011;57543;45.442;9.212;2023-10-08T04:35:56;45.67;;;25.02;;
70169;SDS011;57543;45.442;9.212;2023-10-08T04:39:05;44.50;;;23.52;;
70169;SDS011;57543;45.442;9.212;2023-10-08T04:42:16;47.28;;;24.77;;
70169;SDS011;57543;45.442;9.212;2023-10-08T04:45:29;44.15;;;22.63;;
70169;SDS011;57543;45.442;9.212;2023-10-08T04:48:37;38.97;;;21.33;;
70169;SDS011;57543;45.442;9.212;2023-10-08T04:51:41;45.00;;;25.10;;
70169;SDS011;57543;45.442;9.212;2023-10-08T04:54:49;41.13;;;23.45;;
70169;SDS011;57543;45.442;9.212;2023-10-08T04:57:57;41.55;;;22.77;;
70169;SDS011;57543;45.442;9.212;2023-10-08T05:01:01;41.53;;;23.20;;
70169;SDS011;57543;45.442;9.212;2023-10-08T05:04:20;36.97;;;20.80;;
70169;SDS011;57543;45.442;9.212;2023-10-08T05:07:27;40.85;;;21.23;;
70169;SDS011;57543;45.442;9.212;2023-10-08T05:10:48;37.60;;;20.42;;
70169;SDS011;57543;45.442;9.212;2023-10-08T05:14:04;37.33;;;19.73;;
70169;SDS011;57543;45.442;9.212;2023-10-08T05:17:20;37.13;;;19.63;;
70169;SDS011;57543;45.442;9.212;2023-10-08T05:20:28;35.77;;;19.07;;
70169;SDS011;57543;45.442;9.212;2023-10-08T05:23:51;32.90;;;17.27;;
70169;SDS011;57543;45.442;9.212;2023-10-08T05:27:12;31.48;;;16.52;;
70169;SDS011;57543;45.442;9.212;2023-10-08T05:30:34;29.73;;;15.55;;
70169;SDS011;57543;45.442;9.212;2023-10-08T05:33:41;30.38;;;16.10;;
70169;SDS011;57543;45.442;9.212;2023-10-08T05:37:17;26.30;;;14.70;;
70169;SDS011;57543;45.442;9.212;2023-10-08T05:40:43;27.60;;;14.60;;
70169;SDS011;57543;45.442;9.212;2023-10-08T05:44:07;25.25;;;14.38;;
70169;SDS011;57543;45.442;9.212;2023-10-08T05:47:22;27.42;;;14.38;;
70169;SDS011;57543;45.442;9.212;2023-10-08T05:50:53;25.48;;;14.38;;
70169;SDS011;57543;45.442;9.212;2023-10-08T05:54:24;27.90;;;14.63;;
70169;SDS011;57543;45.442;9.212;2023-10-08T05:57:34;23.48;;;12.65;;
70169;SDS011;57543;45.442;9.212;2023-10-08T06:00:49;25.05;;;13.48;;
70169;SDS011;57543;45.442;9.212;2023-10-08T06:03:54;24.23;;;12.85;;
70169;SDS011;57543;45.442;9.212;2023-10-08T06:07:03;22.48;;;12.63;;
70169;SDS011;57543;45.442;9.212;2023-10-08T06:10:21;21.80;;;12.90;;
70169;SDS011;57543;45.442;9.212;2023-10-08T06:13:34;26.95;;;14.27;;
70169;SDS011;57543;45.442;9.212;2023-10-08T06:16:48;25.38;;;13.68;;
70169;SDS011;57543;45.442;9.212;2023-10-08T06:19:55;23.60;;;13.40;;
70169;SDS011;57543;45.442;9.212;2023-10-08T06:23:00;24.77;;;13.20;;
70169;SDS011;57543;45.442;9.212;2023-10-08T06:26:10;23.30;;;13.07;;
70169;SDS011;57543;45.442;9.212;2023-10-08T06:29:14;23.48;;;13.50;;
70169;SDS011;57543;45.442;9.212;2023-10-08T06:32:30;23.83;;;13.57;;
70169;SDS011;57543;45.442;9.212;2023-10-08T06:35:33;19.23;;;11.25;;
70169;SDS011;57543;45.442;9.212;2023-10-08T06:38:38;21.05;;;12.00;;
70169;SDS011;57543;45.442;9.212;2023-10-08T06:41:52;21.53;;;11.63;;
70169;SDS011;57543;45.442;9.212;2023-10-08T06:45:00;19.75;;;11.35;;
70169;SDS011;57543;45.442;9.212;2023-10-08T06:48:04;19.17;;;10.68;;
70169;SDS011;57543;45.442;9.212;2023-10-08T06:51:09;18.88;;;10.07;;
70169;SDS011;57543;45.442;9.212;2023-10-08T06:54:16;20.40;;;10.00;;
70169;SDS011;57543;45.442;9.212;2023-10-08T06:57:21;18.40;;;8.73;;
70169;SDS011;57543;45.442;9.212;2023-10-08T07:00:24;19.05;;;10.05;;
70169;SDS011;57543;45.442;9.212;2023-10-08T07:03:43;16.40;;;9.52;;
70169;SDS011;57543;45.442;9.212;2023-10-08T07:06:47;15.52;;;8.52;;
70169;SDS011;57543;45.442;9.212;2023-10-08T07:09:52;17.00;;;8.38;;
70169;SDS011;57543;45.442;9.212;2023-10-08T07:13:00;18.90;;;8.43;;
70169;SDS011;57543;45.442;9.212;2023-10-08T07:16:06;15.57;;;7.93;;
70169;SDS011;57543;45.442;9.212;2023-10-08T07:19:14;18.35;;;7.70;;
70169;SDS011;57543;45.442;9.212;2023-10-08T07:22:22;14.57;;;7.28;;
70169;SDS011;57543;45.442;9.212;2023-10-08T07:25:26;16.30;;;7.88;;
70169;SDS011;57543;45.442;9.212;2023-10-08T07:28:40;15.93;;;6.80;;
70169;SDS011;57543;45.442;9.212;2023-10-08T07:31:45;14.25;;;6.65;;
70169;SDS011;57543;45.442;9.212;2023-10-08T07:34:53;20.25;;;6.28;;
70169;SDS011;57543;45.442;9.212;2023-10-08T07:38:01;13.35;;;6.07;;
70169;SDS011;57543;45.442;9.212;2023-10-08T07:41:05;13.10;;;5.57;;
70169;SDS011;57543;45.442;9.212;2023-10-08T07:44:08;10.80;;;4.93;;
70169;SDS011;57543;45.442;9.212;2023-10-08T07:47:12;14.80;;;5.28;;
70169;SDS011;57543;45.442;9.212;2023-10-08T07:50:17;12.50;;;4.63;;
70169;SDS011;57543;45.442;9.212;2023-10-08T07:53:26;14.35;;;4.60;;
70169;SDS011;57543;45.442;9.212;2023-10-08T07:56:40;12.00;;;5.18;;
70169;SDS011;57543;45.442;9.212;2023-10-08T07:59:45;12.83;;;4.70;;
70169;SDS011;57543;45.442;9.212;2023-10-08T08:02:49;10.93;;;4.78;;
70169;SDS011;57543;45.442;9.212;2023-10-08T08:05:55;10.45;;;4.13;;
70169;SDS011;57543;45.442;9.212;2023-10-08T08:08:58;13.98;;;4.75;;
70169;SDS011;57543;45.442;9.212;2023-10-08T08:12:02;15.63;;;6.15;;
70169;SDS011;57543;45.442;9.212;2023-10-08T08:15:10;13.07;;;5.17;;
70169;SDS011;57543;45.442;9.212;2023-10-08T08:18:25;14.25;;;6.30;;
70169;SDS011;57543;45.442;9.212;2023-10-08T08:21:34;14.23;;;5.88;;
70169;SDS011;57543;45.442;9.212;2023-10-08T08:24:38;14.75;;;6.78;;
70169;SDS011;57543;45.442;9.212;2023-10-08T08:27:44;16.63;;;7.82;;
70169;SDS011;57543;45.442;9.212;2023-10-08T08:30:50;14.40;;;6.40;;
70169;SDS011;57543;45.442;9.212;2023-10-08T08:33:56;15.73;;;6.50;;
70169;SDS011;57543;45.442;9.212;2023-10-08T08:37:00;17.05;;;7.78;;
70169;SDS011;57543;45.442;9.212;2023-10-08T08:40:03;15.75;;;7.50;;
70169;SDS011;57543;45.442;9.212;2023-10-08T08:43:24;16.02;;;8.20;;
70169;SDS011;57543;45.442;9.212;2023-10-08T08:46:36;19.00;;;8.33;;
70169;SDS011;57543;45.442;9.212;2023-10-08T08:49:43;19.08;;;8.02;;
70169;SDS011;57543;45.442;9.212;2023-10-08T08:52:48;16.67;;;7.40;;
70169;SDS011;57543;45.442;9.212;2023-10-08T08:55:52;14.52;;;6.57;;
70169;SDS011;57543;45.442;9.212;2023-10-08T08:58:59;16.02;;;6.78;;
70169;SDS011;57543;45.442;9.212;2023-10-08T09:02:04;18.73;;;7.30;;
70169;SDS011;57543;45.442;9.212;2023-10-08T09:05:11;17.27;;;7.20;;
70169;SDS011;57543;45.442;9.212;2023-10-08T09:08:37;14.38;;;7.15;;
70169;SDS011;57543;45.442;9.212;2023-10-08T09:11:46;15.05;;;6.90;;
70169;SDS011;57543;45.442;9.212;2023-10-08T09:14:50;17.67;;;7.90;;
70169;SDS011;57543;45.442;9.212;2023-10-08T09:17:54;16.03;;;7.67;;
70169;SDS011;57543;45.442;9.212;2023-10-08T09:21:07;20.88;;;9.10;;
70169;SDS011;57543;45.442;9.212;2023-10-08T09:24:18;14.23;;;8.07;;
70169;SDS011;57543;45.442;9.212;2023-10-08T09:27:22;19.95;;;8.27;;
70169;SDS011;57543;45.442;9.212;2023-10-08T09:30:29;16.00;;;8.27;;
70169;SDS011;57543;45.442;9.212;2023-10-08T09:33:33;16.30;;;8.07;;
70169;SDS011;57543;45.442;9.212;2023-10-08T09:36:36;17.52;;;7.97;;
70169;SDS011;57543;45.442;9.212;2023-10-08T09:39:41;15.57;;;7.95;;
70169;SDS011;57543;45.442;9.212;2023-10-08T09:42:46;16.25;;;8.05;;
70169;SDS011;57543;45.442;9.212;2023-10-08T09:46:03;15.93;;;8.13;;
70169;SDS011;57543;45.442;9.212;2023-10-08T09:49:13;15.67;;;8.43;;
70169;SDS011;57543;45.442;9.212;2023-10-08T09:52:21;18.90;;;8.50;;
70169;SDS011;57543;45.442;9.212;2023-10-08T09:55:30;15.95;;;7.72;;
70169;SDS011;57543;45.442;9.212;2023-10-08T09:58:34;13.38;;;6.72;;
70169;SDS011;57543;45.442;9.212;2023-10-08T10:01:37;15.68;;;7.82;;
70169;SDS011;57543;45.442;9.212;2023-10-08T10:04:43;18.13;;;7.60;;
70169;SDS011;57543;45.442;9.212;2023-10-08T10:07:48;15.35;;;7.68;;
70169;SDS011;57543;45.442;9.212;2023-10-08T10:10:57;17.58;;;7.82;;
70169;SDS011;57543;45.442;9.212;2023-10-08T10:14:02;14.80;;;7.72;;
70169;SDS011;57543;45.442;9.212;2023-10-08T10:17:10;13.57;;;7.43;;
70169;SDS011;57543;45.442;9.212;2023-10-08T10:20:17;15.13;;;7.27;;
70169;SDS011;57543;45.442;9.212;2023-10-08T10:26:41;15.18;;;7.28;;
70169;SDS011;57543;45.442;9.212;2023-10-08T10:29:50;12.88;;;6.55;;
70169;SDS011;57543;45.442;9.212;2023-10-08T10:32:59;14.90;;;6.78;;
70169;SDS011;57543;45.442;9.212;2023-10-08T10:36:04;13.97;;;6.70;;
70169;SDS011;57543;45.442;9.212;2023-10-08T10:39:12;15.77;;;7.03;;
70169;SDS011;57543;45.442;9.212;2023-10-08T10:42:29;16.58;;;7.88;;
70169;SDS011;57543;45.442;9.212;2023-10-08T10:45:32;15.23;;;8.18;;
70169;SDS011;57543;45.442;9.212;2023-10-08T10:48:41;14.35;;;7.72;;
70169;SDS011;57543;45.442;9.212;2023-10-08T10:51:48;16.00;;;7.70;;
70169;SDS011;57543;45.442;9.212;2023-10-08T10:54:55;14.27;;;7.90;;
70169;SDS011;57543;45.442;9.212;2023-10-08T10:58:02;17.23;;;8.90;;
70169;SDS011;57543;45.442;9.212;2023-10-08T11:01:15;15.02;;;8.13;;
70169;SDS011;57543;45.442;9.212;2023-10-08T11:04:27;15.52;;;9.38;;
70169;SDS011;57543;45.442;9.212;2023-10-08T11:07:34;16.77;;;8.70;;
70169;SDS011;57543;45.442;9.212;2023-10-08T11:10:38;17.98;;;9.05;;
70169;SDS011;57543;45.442;9.212;2023-10-08T11:13:43;15.40;;;8.63;;
70169;SDS011;57543;45.442;9.212;2023-10-08T11:16:50;16.65;;;8.57;;
70169;SDS011;57543;45.442;9.212;2023-10-08T11:19:54;16.17;;;9.32;;
70169;SDS011;57543;45.442;9.212;2023-10-08T11:22:58;18.27;;;8.60;;
70169;SDS011;57543;45.442;9.212;2023-10-08T11:26:22;13.60;;;7.78;;
70169;SDS011;57543;45.442;9.212;2023-10-08T11:29:35;18.88;;;8.40;;
70169;SDS011;57543;45.442;9.212;2023-10-08T11:32:41;16.95;;;8.88;;
70169;SDS011;57543;45.442;9.212;2023-10-08T11:35:58;16.42;;;9.05;;
70169;SDS011;57543;45.442;9.212;2023-10-08T11:39:14;18.87;;;9.40;;
70169;SDS011;57543;45.442;9.212;2023-10-08T11:42:27;16.60;;;8.95;;
70169;SDS011;57543;45.442;9.212;2023-10-08T11:45:40;17.02;;;9.50;;
70169;SDS011;57543;45.442;9.212;2023-10-08T11:48:51;16.48;;;9.02;;
70169;SDS011;57543;45.442;9.212;2023-10-08T11:51:55;18.25;;;9.02;;
70169;SDS011;57543;45.442;9.212;2023-10-08T11:54:59;16.97;;;8.73;;
70169;SDS011;57543;45.442;9.212;2023-10-08T11:58:05;19.10;;;8.77;;
70169;SDS011;57543;45.442;9.212;2023-10-08T12:01:20;16.17;;;8.98;;
70169;SDS011;57543;45.442;9.212;2023-10-08T12:04:24;14.73;;;8.20;;
70169;SDS011;57543;45.442;9.212;2023-10-08T12:07:28;18.45;;;8.40;;
70169;SDS011;57543;45.442;9.212;2023-10-08T12:10:32;15.43;;;8.10;;
70169;SDS011;57543;45.442;9.212;2023-10-08T12:13:40;18.23;;;8.25;;
70169;SDS011;57543;45.442;9.212;2023-10-08T12:16:47;13.82;;;7.53;;
70169;SDS011;57543;45.442;9.212;2023-10-08T12:19:51;13.20;;;7.47;;
70169;SDS011;57543;45.442;9.212;2023-10-08T12:22:55;14.43;;;8.23;;
70169;SDS011;57543;45.442;9.212;2023-10-08T12:25:59;14.63;;;8.03;;
70169;SDS011;57543;45.442;9.212;2023-10-08T12:29:03;16.55;;;7.18;;
70169;SDS011;57543;45.442;9.212;2023-10-08T12:32:07;15.80;;;7.88;;
70169;SDS011;57543;45.442;9.212;2023-10-08T12:35:20;16.48;;;7.70;;
70169;SDS011;57543;45.442;9.212;2023-10-08T12:38:27;13.80;;;7.40;;
70169;SDS011;57543;45.442;9.212;2023-10-08T12:41:31;15.77;;;7.17;;
70169;SDS011;57543;45.442;9.212;2023-10-08T12:44:34;15.57;;;7.22;;
70169;SDS011;57543;45.442;9.212;2023-10-08T12:47:39;16.88;;;7.28;;
70169;SDS011;57543;45.442;9.212;2023-10-08T12:50:43;11.32;;;6.60;;
70169;SDS011;57543;45.442;9.212;2023-10-08T12:53:46;13.40;;;6.22;;
70169;SDS011;57543;45.442;9.212;2023-10-08T12:57:16;17.37;;;6.93;;
70169;SDS011;57543;45.442;9.212;2023-10-08T13:00:23;14.75;;;7.00;;
70169;SDS011;57543;45.442;9.212;2023-10-08T13:03:27;14.18;;;7.30;;
70169;SDS011;57543;45.442;9.212;2023-10-08T13:06:36;19.73;;;7.07;;
70169;SDS011;57543;45.442;9.212;2023-10-08T13:09:40;17.05;;;6.90;;
70169;SDS011;57543;45.442;9.212;2023-10-08T13:12:46;13.93;;;6.57;;
70169;SDS011;57543;45.442;9.212;2023-10-08T13:15:49;12.32;;;6.18;;
70169;SDS011;57543;45.442;9.212;2023-10-08T13:18:53;20.70;;;6.35;;
70169;SDS011;57543;45.442;9.212;2023-10-08T13:22:00;13.88;;;5.97;;
70169;SDS011;57543;45.442;9.212;2023-10-08T13:25:03;12.63;;;5.85;;
70169;SDS011;57543;45.442;9.212;2023-10-08T13:28:07;14.83;;;6.00;;
70169;SDS011;57543;45.442;9.212;2023-10-08T13:31:14;13.60;;;5.13;;
70169;SDS011;57543;45.442;9.212;2023-10-08T13:34:19;13.98;;;5.60;;
70169;SDS011;57543;45.442;9.212;2023-10-08T13:37:25;16.48;;;5.68;;
70169;SDS011;57543;45.442;9.212;2023-10-08T13:40:29;17.58;;;5.75;;
70169;SDS011;57543;45.442;9.212;2023-10-08T13:43:36;17.83;;;5.07;;
70169;SDS011;57543;45.442;9.212;2023-10-08T13:46:40;11.77;;;4.47;;
70169;SDS011;57543;45.442;9.212;2023-10-08T13:49:52;14.55;;;4.90;;
70169;SDS011;57543;45.442;9.212;2023-10-08T13:53:14;14.95;;;4.50;;
70169;SDS011;57543;45.442;9.212;2023-10-08T13:56:18;12.73;;;4.38;;
70169;SDS011;57543;45.442;9.212;2023-10-08T13:59:27;16.30;;;4.67;;
70169;SDS011;57543;45.442;9.212;2023-10-08T14:02:34;12.32;;;4.32;;
70169;SDS011;57543;45.442;9.212;2023-10-08T14:05:38;12.57;;;4.30;;
70169;SDS011;57543;45.442;9.212;2023-10-08T14:08:43;13.73;;;4.25;;
70169;SDS011;57543;45.442;9.212;2023-10-08T14:11:57;13.57;;;4.20;;
70169;SDS011;57543;45.442;9.212;2023-10-08T14:15:01;11.80;;;4.47;;
70169;SDS011;57543;45.442;9.212;2023-10-08T14:18:10;9.63;;;4.28;;
70169;SDS011;57543;45.442;9.212;2023-10-08T14:21:17;12.55;;;3.70;;
70169;SDS011;57543;45.442;9.212;2023-10-08T14:24:21;10.57;;;3.58;;
70169;SDS011;57543;45.442;9.212;2023-10-08T14:27:27;14.23;;;4.00;;
70169;SDS011;57543;45.442;9.212;2023-10-08T14:30:43;16.30;;;4.00;;
70169;SDS011;57543;45.442;9.212;2023-10-08T14:33:47;9.07;;;3.55;;
70169;SDS011;57543;45.442;9.212;2023-10-08T14:37:08;13.38;;;4.45;;
70169;SDS011;57543;45.442;9.212;2023-10-08T14:40:30;17.35;;;4.20;;
70169;SDS011;57543;45.442;9.212;2023-10-08T14:43:52;14.20;;;4.10;;
70169;SDS011;57543;45.442;9.212;2023-10-08T14:46:55;11.97;;;4.00;;
70169;SDS011;57543;45.442;9.212;2023-10-08T14:49:59;12.07;;;4.30;;
70169;SDS011;57543;45.442;9.212;2023-10-08T14:53:07;12.70;;;4.60;;
70169;SDS011;57543;45.442;9.212;2023-10-08T14:56:11;11.73;;;4.03;;
70169;SDS011;57543;45.442;9.212;2023-10-08T14:59:15;13.50;;;4.68;;
70169;SDS011;57543;45.442;9.212;2023-10-08T15:02:21;11.77;;;4.10;;
70169;SDS011;57543;45.442;9.212;2023-10-08T15:05:25;14.38;;;4.43;;
70169;SDS011;57543;45.442;9.212;2023-10-08T15:08:28;14.85;;;4.45;;
70169;SDS011;57543;45.442;9.212;2023-10-08T15:11:32;14.30;;;4.32;;
70169;SDS011;57543;45.442;9.212;2023-10-08T15:14:36;13.55;;;5.00;;
70169;SDS011;57543;45.442;9.212;2023-10-08T15:17:41;15.20;;;4.27;;
70169;SDS011;57543;45.442;9.212;2023-10-08T15:20:46;13.00;;;4.20;;
70169;SDS011;57543;45.442;9.212;2023-10-08T15:23:50;11.05;;;4.25;;
70169;SDS011;57543;45.442;9.212;2023-10-08T15:26:54;12.80;;;4.68;;
70169;SDS011;57543;45.442;9.212;2023-10-08T15:29:57;14.70;;;4.18;;
70169;SDS011;57543;45.442;9.212;2023-10-08T15:33:01;12.30;;;4.33;;
70169;SDS011;57543;45.442;9.212;2023-10-08T15:36:05;12.45;;;4.15;;
70169;SDS011;57543;45.442;9.212;2023-10-08T15:39:09;13.18;;;4.47;;
70169;SDS011;57543;45.442;9.212;2023-10-08T15:42:15;14.80;;;4.35;;
70169;SDS011;57543;45.442;9.212;2023-10-08T15:45:22;16.27;;;4.80;;
70169;SDS011;57543;45.442;9.212;2023-10-08T15:48:46;13.67;;;4.57;;
70169;SDS011;57543;45.442;9.212;2023-10-08T15:51:50;14.90;;;4.65;;
70169;SDS011;57543;45.442;9.212;2023-10-08T15:54:54;11.35;;;4.65;;
70169;SDS011;57543;45.442;9.212;2023-10-08T15:57:58;9.82;;;4.22;;
70169;SDS011;57543;45.442;9.212;2023-10-08T16:01:02;16.08;;;5.47;;
70169;SDS011;57543;45.442;9.212;2023-10-08T16:04:06;13.37;;;4.40;;
70169;SDS011;57543;45.442;9.212;2023-10-08T16:07:10;15.02;;;4.65;;
70169;SDS011;57543;45.442;9.212;2023-10-08T16:10:17;10.93;;;4.38;;
70169;SDS011;57543;45.442;9.212;2023-10-08T16:13:21;15.15;;;4.78;;
70169;SDS011;57543;45.442;9.212;2023-10-08T16:16:24;14.52;;;5.38;;
70169;SDS011;57543;45.442;9.212;2023-10-08T16:19:27;14.40;;;5.33;;
70169;SDS011;57543;45.442;9.212;2023-10-08T16:22:32;14.00;;;5.00;;
70169;SDS011;57543;45.442;9.212;2023-10-08T16:25:36;11.15;;;5.07;;
70169;SDS011;57543;45.442;9.212;2023-10-08T16:28:40;11.57;;;4.85;;
70169;SDS011;57543;45.442;9.212;2023-10-08T16:31:43;13.20;;;4.55;;
70169;SDS011;57543;45.442;9.212;2023-10-08T16:34:47;13.60;;;5.10;;
70169;SDS011;57543;45.442;9.212;2023-10-08T16:37:51;13.82;;;5.18;;
70169;SDS011;57543;45.442;9.212;2023-10-08T16:40:56;10.73;;;5.25;;
70169;SDS011;57543;45.442;9.212;2023-10-08T16:43:59;14.82;;;5.30;;
70169;SDS011;57543;45.442;9.212;2023-10-08T16:47:02;13.98;;;5.40;;
70169;SDS011;57543;45.442;9.212;2023-10-08T16:50:06;11.03;;;4.77;;
70169;SDS011;57543;45.442;9.212;2023-10-08T16:53:11;12.15;;;5.72;;
70169;SDS011;57543;45.442;9.212;2023-10-08T16:56:15;10.50;;;5.00;;
70169;SDS011;57543;45.442;9.212;2023-10-08T16:59:19;9.65;;;4.90;;
70169;SDS011;57543;45.442;9.212;2023-10-08T17:02:23;14.07;;;5.70;;
70169;SDS011;57543;45.442;9.212;2023-10-08T17:05:26;12.47;;;5.50;;
70169;SDS011;57543;45.442;9.212;2023-10-08T17:08:30;11.32;;;5.30;;
70169;SDS011;57543;45.442;9.212;2023-10-08T17:11:36;16.90;;;6.13;;
70169;SDS011;57543;45.442;9.212;2023-10-08T17:14:40;14.52;;;6.20;;
70169;SDS011;57543;45.442;9.212;2023-10-08T17:17:44;17.40;;;6.28;;
70169;SDS011;57543;45.442;9.212;2023-10-08T17:20:48;12.77;;;5.57;;
70169;SDS011;57543;45.442;9.212;2023-10-08T17:23:51;18.45;;;6.70;;
70169;SDS011;57543;45.442;9.212;2023-10-08T17:26:54;15.25;;;6.88;;
70169;SDS011;57543;45.442;9.212;2023-10-08T17:29:59;15.02;;;6.32;;
70169;SDS011;57543;45.442;9.212;2023-10-08T17:33:03;14.73;;;6.80;;
70169;SDS011;57543;45.442;9.212;2023-10-08T17:36:09;14.60;;;6.60;;
70169;SDS011;57543;45.442;9.212;2023-10-08T17:39:13;12.85;;;6.53;;
70169;SDS011;57543;45.442;9.212;2023-10-08T17:42:20;18.42;;;6.78;;
70169;SDS011;57543;45.442;9.212;2023-10-08T17:45:23;13.27;;;6.45;;
70169;SDS011;57543;45.442;9.212;2023-10-08T17:48:37;14.65;;;6.05;;
70169;SDS011;57543;45.442;9.212;2023-10-08T17:51:43;19.07;;;6.90;;
70169;SDS011;57543;45.442;9.212;2023-10-08T17:54:47;14.05;;;5.88;;
70169;SDS011;57543;45.442;9.212;2023-10-08T17:57:50;14.15;;;6.03;;
70169;SDS011;57543;45.442;9.212;2023-10-08T18:00:56;15.27;;;6.30;;
70169;SDS011;57543;45.442;9.212;2023-10-08T18:04:01;12.43;;;6.28;;
70169;SDS011;57543;45.442;9.212;2023-10-08T18:07:05;14.43;;;6.20;;
70169;SDS011;57543;45.442;9.212;2023-10-08T18:10:11;13.52;;;6.05;;
70169;SDS011;57543;45.442;9.212;2023-10-08T18:13:15;14.23;;;5.90;;
70169;SDS011;57543;45.442;9.212;2023-10-08T18:16:19;17.35;;;6.25;;
70169;SDS011;57543;45.442;9.212;2023-10-08T18:19:24;14.85;;;5.57;;
70169;SDS011;57543;45.442;9.212;2023-10-08T18:22:27;15.30;;;5.90;;
70169;SDS011;57543;45.442;9.212;2023-10-08T18:25:32;17.48;;;6.25;;
70169;SDS011;57543;45.442;9.212;2023-10-08T18:28:36;18.15;;;6.38;;
70169;SDS011;57543;45.442;9.212;2023-10-08T18:31:44;22.80;;;6.60;;
70169;SDS011;57543;45.442;9.212;2023-10-08T18:34:50;22.33;;;7.53;;